Terminal Aerodrome Forecast
Issued by NWS

Home | Current Version | Previous Version | Text Only | Print | Product List | Glossary Off
Versions: 1 2 3 4 5 6 7 8 9 10 11 12 13 14 15 16 17 18 19

000
FTUS43 KMPX 201100 RRA
TAFAXN
TAF
KAXN 201139Z 2012/2112 30008KT P6SM FEW012 SCT250
      TEMPO 2012/2014 BKN008
     FM201800 30015G22KT P6SM BKN045 OVC080
      TEMPO 2019/2023 2SM TSRA OVC030CB
     FM210300 32010KT P6SM SCT045 BKN100
     FM210600 32007KT P6SM SCT120=

USA.gov is the U.S. government's official web portal to all federal, state and local government web resources and services.